sensor_id;sensor_type;location;lat;lon;timestamp;P1;durP1;ratioP1;P2;durP2;ratioP2
59788;SDS011;47353;51.614;5.530;2023-05-10T21:00:12;59.67;;;34.08;;
59788;SDS011;47353;51.614;5.530;2023-05-10T21:02:42;67.22;;;40.90;;
59788;SDS011;47353;51.614;5.530;2023-05-10T21:05:09;59.33;;;34.15;;
59788;SDS011;47353;51.614;5.530;2023-05-10T21:07:34;52.45;;;31.77;;
59788;SDS011;47353;51.614;5.530;2023-05-10T21:10:00;50.03;;;31.13;;
59788;SDS011;47353;51.614;5.530;2023-05-10T21:12:25;42.85;;;28.60;;
59788;SDS011;47353;51.614;5.530;2023-05-10T21:14:50;41.08;;;27.05;;
59788;SDS011;47353;51.614;5.530;2023-05-10T21:17:16;42.10;;;28.38;;
59788;SDS011;47353;51.614;5.530;2023-05-10T21:19:41;41.40;;;26.48;;
59788;SDS011;47353;51.614;5.530;2023-05-10T21:22:07;37.45;;;25.13;;
59788;SDS011;47353;51.614;5.530;2023-05-10T21:24:32;41.08;;;26.27;;
59788;SDS011;47353;51.614;5.530;2023-05-10T21:26:59;37.67;;;26.50;;
59788;SDS011;47353;51.614;5.530;2023-05-10T21:29:25;36.75;;;26.02;;
59788;SDS011;47353;51.614;5.530;2023-05-10T21:31:51;34.03;;;25.65;;
59788;SDS011;47353;51.614;5.530;2023-05-10T21:34:17;38.33;;;25.98;;
59788;SDS011;47353;51.614;5.530;2023-05-10T21:36:42;37.17;;;25.90;;
59788;SDS011;47353;51.614;5.530;2023-05-10T21:39:07;41.08;;;26.63;;
59788;SDS011;47353;51.614;5.530;2023-05-10T21:41:33;35.92;;;26.33;;
59788;SDS011;47353;51.614;5.530;2023-05-10T21:43:58;33.45;;;24.40;;
59788;SDS011;47353;51.614;5.530;2023-05-10T21:46:24;36.22;;;26.27;;
59788;SDS011;47353;51.614;5.530;2023-05-10T21:48:49;38.10;;;26.67;;
59788;SDS011;47353;51.614;5.530;2023-05-10T21:51:15;37.40;;;26.40;;
59788;SDS011;47353;51.614;5.530;2023-05-10T21:53:40;38.20;;;26.52;;
59788;SDS011;47353;51.614;5.530;2023-05-10T21:56:05;37.38;;;25.45;;
59788;SDS011;47353;51.614;5.530;2023-05-10T21:58:31;35.15;;;25.33;;
59788;SDS011;47353;51.614;5.530;2023-05-10T22:00:57;36.78;;;26.42;;
59788;SDS011;47353;51.614;5.530;2023-05-10T22:03:22;36.90;;;25.45;;
59788;SDS011;47353;51.614;5.530;2023-05-10T22:05:48;37.83;;;25.75;;
59788;SDS011;47353;51.614;5.530;2023-05-10T22:08:13;35.90;;;25.60;;
59788;SDS011;47353;51.614;5.530;2023-05-10T22:10:39;36.53;;;24.98;;
59788;SDS011;47353;51.614;5.530;2023-05-10T22:13:04;36.97;;;25.90;;
59788;SDS011;47353;51.614;5.530;2023-05-10T22:15:29;37.63;;;26.33;;
59788;SDS011;47353;51.614;5.530;2023-05-10T22:17:56;38.05;;;25.67;;
59788;SDS011;47353;51.614;5.530;2023-05-10T22:20:21;37.63;;;25.60;;
59788;SDS011;47353;51.614;5.530;2023-05-10T22:22:47;38.33;;;24.85;;
59788;SDS011;47353;51.614;5.530;2023-05-10T22:25:12;34.72;;;24.45;;
59788;SDS011;47353;51.614;5.530;2023-05-10T22:27:37;34.15;;;24.23;;
59788;SDS011;47353;51.614;5.530;2023-05-10T22:30:03;35.13;;;24.17;;
59788;SDS011;47353;51.614;5.530;2023-05-10T22:32:31;34.42;;;24.30;;
59788;SDS011;47353;51.614;5.530;2023-05-10T22:34:57;37.30;;;24.63;;
59788;SDS011;47353;51.614;5.530;2023-05-10T22:37:22;36.80;;;24.50;;
59788;SDS011;47353;51.614;5.530;2023-05-10T22:39:47;41.03;;;24.45;;
59788;SDS011;47353;51.614;5.530;2023-05-10T22:42:13;38.80;;;24.83;;
59788;SDS011;47353;51.614;5.530;2023-05-10T22:44:39;37.67;;;23.70;;
59788;SDS011;47353;51.614;5.530;2023-05-10T22:47:05;38.95;;;24.63;;
59788;SDS011;47353;51.614;5.530;2023-05-10T22:49:31;37.97;;;25.15;;
59788;SDS011;47353;51.614;5.530;2023-05-10T22:51:57;40.28;;;24.40;;
59788;SDS011;47353;51.614;5.530;2023-05-10T22:54:22;40.72;;;24.67;;
59788;SDS011;47353;51.614;5.530;2023-05-10T22:56:48;36.30;;;24.42;;
59788;SDS011;47353;51.614;5.530;2023-05-10T22:59:13;37.25;;;23.38;;
59788;SDS011;47353;51.614;5.530;2023-05-10T23:01:39;38.05;;;23.42;;
59788;SDS011;47353;51.614;5.530;2023-05-10T23:04:04;39.58;;;24.52;;
59788;SDS011;47353;51.614;5.530;2023-05-10T23:06:30;38.85;;;25.15;;
59788;SDS011;47353;51.614;5.530;2023-05-10T23:08:57;35.95;;;23.90;;
59788;SDS011;47353;51.614;5.530;2023-05-10T23:11:22;41.15;;;24.73;;
59788;SDS011;47353;51.614;5.530;2023-05-10T23:13:48;39.00;;;24.48;;
59788;SDS011;47353;51.614;5.530;2023-05-10T23:16:14;42.78;;;24.77;;
59788;SDS011;47353;51.614;5.530;2023-05-10T23:18:40;37.50;;;24.70;;
59788;SDS011;47353;51.614;5.530;2023-05-10T23:21:06;42.47;;;25.73;;
59788;SDS011;47353;51.614;5.530;2023-05-10T23:23:31;45.75;;;27.75;;
59788;SDS011;47353;51.614;5.530;2023-05-10T23:25:58;64.57;;;35.13;;
59788;SDS011;47353;51.614;5.530;2023-05-10T23:28:23;57.97;;;33.38;;
59788;SDS011;47353;51.614;5.530;2023-05-10T23:30:55;49.60;;;29.10;;
59788;SDS011;47353;51.614;5.530;2023-05-10T23:33:22;45.10;;;26.52;;
59788;SDS011;47353;51.614;5.530;2023-05-10T23:35:47;40.85;;;25.58;;
59788;SDS011;47353;51.614;5.530;2023-05-10T23:38:13;42.47;;;25.35;;
59788;SDS011;47353;51.614;5.530;2023-05-10T23:40:38;41.70;;;25.40;;
59788;SDS011;47353;51.614;5.530;2023-05-10T23:43:04;39.88;;;25.63;;
59788;SDS011;47353;51.614;5.530;2023-05-10T23:45:29;40.03;;;24.60;;
59788;SDS011;47353;51.614;5.530;2023-05-10T23:47:55;40.25;;;25.58;;
59788;SDS011;47353;51.614;5.530;2023-05-10T23:50:20;45.17;;;25.67;;
59788;SDS011;47353;51.614;5.530;2023-05-10T23:52:46;45.13;;;26.75;;
59788;SDS011;47353;51.614;5.530;2023-05-10T23:55:11;44.40;;;25.63;;
59788;SDS011;47353;51.614;5.530;2023-05-10T23:57:36;45.60;;;27.35;;
